Airfield :
LOGIN :

Register | Disclaimer

   EN    FR    IT 

 










Legend :    VFR   Marginal VFR   IFR   Intensive IFR   Very Intensive IFR
Visi :
Ceiling :
>= 8 km
>= 3000ft
5 to 8 km
1000 to 3000 ft
1500m to 5 km
500 to 1000 ft
800 to 1500m
200 to 500 ft
< 800m
< 200 ft
Symbols :   Thunderstorms  Fog  Heavy snow  Heavy precipitations  Wind > 20 kt
SIGMETs :     Misc.  Thunderstorms  Icing  Turbulence  Mountain Waves  Volcanic Ashes







- Airport Elevation : 80 ft
- IATA code : LPL
- Download approach charts


EGGP - Liverpool John Lennon

CURRENT METAR :
  • 181420Z 24018KT 9999 FEW033 SCT044 20/10 Q1001

EXPIRED METARs :
  • 181350Z 24019G30KT 9999 FEW038 SCT045 20/12 Q1001
  • 181320Z 24017KT 9999 FEW033 SCT043 19/10 Q1001
  • 181250Z 25019KT 9999 FEW036 SCT043 19/10 Q1001
  • 181220Z 24019KT 9999 FEW038 SCT046 20/09 Q1001
  • 181150Z 24019KT 9999 SCT037 20/11 Q1000

TAF AMD TAF EGGP
Valid from the 18 at 12:00 until the 19 at 12:00 UTC


181214Z 1812/1912 23015KT 9999 SCT030
TEMPO 1812/1818 26018G28KT
PROB30
TEMPO 1821/1824 7000 SHRA
PROB30
TEMPO 1909/1912 7000 SHRA
ATIS : +44 151 907 2000 (option 5 or ext 5150)
Met : +44 871 750 5150
No reported NOTAMs for that airfield.



MET'MAP, your aeronautical weather chart ! - Copyright ORBIFLY December 2007 - Disclaimer

ORBIFLY MET'MAP TEAM :

Programming & Development : Alexandra Zaïnal
Concept & Development : Baudouin d'Aumeries
Co-Development & Prog : Marc-Olivier Méhu
Technical & hardware support : Manuel Goepfert

Contact : metmap@orbifly.com




SOURCES & CREDITS :

   NOAA